Condor Express — 9V5373 — position and weather

sailwx.info

Track history (hours):
 
Tides and Currents Weather Stations Pressure Air Temp Water Temp Dewpoint Dewpoint Depression Visibility Wind Speed Wind Dir Waves Ship Positions

Condor Express

Operator: Condor Marine Services

Last reported at 2017-Apr-08 10:50 UTC. Time now 2017-Apr-24 23:05 UTC.
Position N 01°54' E 102°21'.
Warning: this ship's position is 16 days out of date.

Length 235 m; draft 14.7 m.

Type: Cargo ship. MMSI: 563014500.

Date/timePositionNaut miles runAvg speedWind from/ knotsBaromVisibWave heightAir tempDewpointWater temp
2017-Apr-08 10:50N 01°54' E 102°21'310.5
2017-Apr-08 10:30N 01°53' E 102°24'610.8
2017-Apr-08 09:58N 01°51' E 102°30'510.9
2017-Apr-08 09:28N 01°48' E 102°35'611.7
2017-Apr-08 08:59N 01°46' E 102°40'712.1
2017-Apr-08 08:24N 01°43' E 102°46'4312.5
2017-Apr-08 04:59N 01°18' E 103°21'911.4
2017-Apr-08 04:13N 01°14' E 103°28'211.0
2017-Apr-08 04:00N 01°13' E 103°30'611.4
2017-Apr-08 03:30N 01°11' E 103°36'511.0
2017-Apr-08 03:00N 01°10' E 103°41'5 9.6
2017-Apr-08 02:30N 01°09' E 103°46'611.1
2017-Apr-08 02:00N 01°12' E 103°51'5 9.8
2017-Apr-08 01:31N 01°14' E 103°55'4 8.6
2017-Apr-08 01:00N 01°16' E 103°59'1 2.3
2017-Apr-08 00:31N 01°17' E 103°59'0 0.1
2017-Apr-08 00:00N 01°17' E 103°59'0 0.0
2017-Apr-07 23:30N 01°17' E 103°59'0 0.0
2017-Apr-07 23:00N 01°17' E 103°59'0 0.0
2017-Apr-07 22:27N 01°17' E 103°59'0 0.0
2017-Apr-07 21:57N 01°17' E 103°59'0 0.0
2017-Apr-07 21:30N 01°17' E 103°59'0 0.0
2017-Apr-07 20:54N 01°17' E 103°59'0 0.0
2017-Apr-07 20:30N 01°17' E 103°59'0 0.0
2017-Apr-07 20:00N 01°17' E 103°59'0 0.0
2017-Apr-07 19:12N 01°17' E 103°59'0 0.0
2017-Apr-07 19:00N 01°17' E 103°59'0 0.0
2017-Apr-07 18:30N 01°17' E 103°59'0 0.0
2017-Apr-07 18:00N 01°17' E 103°59'0 0.0
2017-Apr-07 17:30N 01°17' E 103°59'0 0.0
2017-Apr-07 16:54N 01°17' E 103°59'0 0.0
2017-Apr-07 16:24N 01°17' E 103°59'0 0.0
2017-Apr-07 15:57N 01°17' E 103°59'0 0.0
2017-Apr-07 15:30N 01°17' E 103°59'0 0.0
2017-Apr-07 14:57N 01°17' E 103°59'0 0.0
2017-Apr-07 14:00N 01°17' E 103°59'0 0.0
2017-Apr-07 13:30N 01°17' E 103°59'0 0.1
2017-Apr-07 12:45N 01°17' E 103°59'0 0.0
2017-Apr-07 12:30N 01°17' E 103°59'0 0.0
2017-Apr-07 11:54N 01°17' E 103°59'0 0.0
2017-Apr-07 11:30N 01°17' E 103°59'0 0.0
2017-Apr-07 10:52N 01°17' E 103°59'0 0.2
2017-Apr-07 10:30N 01°17' E 103°59'0 0.3
2017-Apr-07 09:55N 01°17' E 103°59'0 0.3
2017-Apr-07 09:30N 01°17' E 103°59'0 0.1
2017-Apr-07 08:58N 01°17' E 103°59'0 0.1
2017-Apr-07 08:30N 01°17' E 103°59'0 0.0
2017-Apr-07 07:58N 01°17' E 103°59'0 0.1
2017-Apr-07 07:30N 01°17' E 103°59'0 0.2
2017-Apr-07 07:00N 01°17' E 103°59'1 1.3
2017-Apr-07 06:30N 01°16' E 103°59'1 2.5
2017-Apr-07 06:00N 01°16' E 103°58'1 1.9
2017-Apr-07 05:30N 01°16' E 103°59'2 4.7
2017-Apr-07 05:00N 01°16' E 104°01'3 5.1
2017-Apr-07 04:25N 01°16' E 104°04'  
Track history (hours):
 
Tides and Currents Weather Stations Pressure Air Temp Water Temp Dewpoint Dewpoint Depression Visibility Wind Speed Wind Dir Waves Ship Positions

Condor Express

Operator: Condor Marine Services

Last reported at 2017-Apr-08 10:50 UTC. Time now 2017-Apr-24 23:05 UTC.
Position N 01°54' E 102°21'.
Warning: this ship's position is 16 days out of date.

Length 235 m; draft 14.7 m.

Type: Cargo ship. MMSI: 563014500.

Date/timePositionNaut miles runAvg speedWind from/ knotsBaromVisibWave heightAir tempDewpointWater temp
2017-Apr-08 10:50N 01°54' E 102°21'310.5
2017-Apr-08 10:30N 01°53' E 102°24'610.8
2017-Apr-08 09:58N 01°51' E 102°30'510.9
2017-Apr-08 09:28N 01°48' E 102°35'611.7
2017-Apr-08 08:59N 01°46' E 102°40'712.1
2017-Apr-08 08:24N 01°43' E 102°46'4312.5
2017-Apr-08 04:59N 01°18' E 103°21'911.4
2017-Apr-08 04:13N 01°14' E 103°28'211.0
2017-Apr-08 04:00N 01°13' E 103°30'611.4
2017-Apr-08 03:30N 01°11' E 103°36'511.0
2017-Apr-08 03:00N 01°10' E 103°41'5 9.6
2017-Apr-08 02:30N 01°09' E 103°46'611.1
2017-Apr-08 02:00N 01°12' E 103°51'5 9.8
2017-Apr-08 01:31N 01°14' E 103°55'4 8.6
2017-Apr-08 01:00N 01°16' E 103°59'1 2.3
2017-Apr-08 00:31N 01°17' E 103°59'0 0.1
2017-Apr-08 00:00N 01°17' E 103°59'0 0.0
2017-Apr-07 23:30N 01°17' E 103°59'0 0.0
2017-Apr-07 23:00N 01°17' E 103°59'0 0.0
2017-Apr-07 22:27N 01°17' E 103°59'0 0.0
2017-Apr-07 21:57N 01°17' E 103°59'0 0.0
2017-Apr-07 21:30N 01°17' E 103°59'0 0.0
2017-Apr-07 20:54N 01°17' E 103°59'0 0.0
2017-Apr-07 20:30N 01°17' E 103°59'0 0.0
2017-Apr-07 20:00N 01°17' E 103°59'0 0.0
2017-Apr-07 19:12N 01°17' E 103°59'0 0.0
2017-Apr-07 19:00N 01°17' E 103°59'0 0.0
2017-Apr-07 18:30N 01°17' E 103°59'0 0.0
2017-Apr-07 18:00N 01°17' E 103°59'0 0.0
2017-Apr-07 17:30N 01°17' E 103°59'0 0.0
2017-Apr-07 16:54N 01°17' E 103°59'0 0.0
2017-Apr-07 16:24N 01°17' E 103°59'0 0.0
2017-Apr-07 15:57N 01°17' E 103°59'0 0.0
2017-Apr-07 15:30N 01°17' E 103°59'0 0.0
2017-Apr-07 14:57N 01°17' E 103°59'0 0.0
2017-Apr-07 14:00N 01°17' E 103°59'0 0.0
2017-Apr-07 13:30N 01°17' E 103°59'0 0.1
2017-Apr-07 12:45N 01°17' E 103°59'0 0.0
2017-Apr-07 12:30N 01°17' E 103°59'0 0.0
2017-Apr-07 11:54N 01°17' E 103°59'0 0.0
2017-Apr-07 11:30N 01°17' E 103°59'0 0.0
2017-Apr-07 10:52N 01°17' E 103°59'0 0.2
2017-Apr-07 10:30N 01°17' E 103°59'0 0.3
2017-Apr-07 09:55N 01°17' E 103°59'0 0.3
2017-Apr-07 09:30N 01°17' E 103°59'0 0.1
2017-Apr-07 08:58N 01°17' E 103°59'0 0.1
2017-Apr-07 08:30N 01°17' E 103°59'0 0.0
2017-Apr-07 07:58N 01°17' E 103°59'0 0.1
2017-Apr-07 07:30N 01°17' E 103°59'0 0.2
2017-Apr-07 07:00N 01°17' E 103°59'1 1.3
2017-Apr-07 06:30N 01°16' E 103°59'1 2.5
2017-Apr-07 06:00N 01°16' E 103°58'1 1.9
2017-Apr-07 05:30N 01°16' E 103°59'2 4.7
2017-Apr-07 05:00N 01°16' E 104°01'3 5.1
2017-Apr-07 04:25N 01°16' E 104°04'  

Dump ship's entire track history